Time;durP1;ratioP1;P1;durP2;ratioP2;P2;SDS_P1;SDS_P2;PMS_P1;PMS_P2;Temp;Humidity;BMP_temperature;BMP_pressure;BME280_temperature;BME280_humidity;BME280_pressure;Samples;Min_cycle;Max_cycle;Signal;HPM_P1;HPM_P2
2021/08/02 00:01:40;;;;;;;5.93;2.55;;;;;;;;;;5095162;28;20496;-74
2021/08/02 00:04:09;;;;;;;3.10;2.30;;;;;;;;;;5094844;28;20044;-74
2021/08/02 00:06:55;;;;;;;3.38;3.08;;;;;;;;;;5095025;28;20066;-74
2021/08/02 00:09:23;;;;;;;3.05;2.60;;;;;;;;;;5080187;28;20020;-73
2021/08/02 00:11:51;;;;;;;3.60;2.85;;;;;;;;;;5095151;28;20031;-74
2021/08/02 00:14:17;;;;;;;2.88;2.60;;;;;;;;;;5095150;28;20114;-73
2021/08/02 00:16:43;;;;;;;2.92;2.72;;;;;;;;;;5094970;28;20020;-73
2021/08/02 00:19:09;;;;;;;3.30;2.38;;;;;;;;;;5094922;28;20020;-74
2021/08/02 00:21:36;;;;;;;10.10;3.08;;;;;;;;;;5095416;28;20059;-73
2021/08/02 00:24:02;;;;;;;3.30;3.00;;;;;;;;;;5095456;28;20039;-73
2021/08/02 00:26:28;;;;;;;2.72;2.53;;;;;;;;;;5094956;28;20027;-73
2021/08/02 00:28:54;;;;;;;3.28;2.72;;;;;;;;;;5095263;28;20028;-76
2021/08/02 00:31:21;;;;;;;4.47;2.90;;;;;;;;;;5094650;28;20466;-74
2021/08/02 00:33:47;;;;;;;3.10;2.85;;;;;;;;;;5094830;28;20527;-74
2021/08/02 00:36:18;;;;;;;2.97;2.50;;;;;;;;;;5094829;28;20056;-74
2021/08/02 00:38:46;;;;;;;5.03;2.83;;;;;;;;;;5095307;28;20023;-74
2021/08/02 00:41:32;;;;;;;3.28;2.55;;;;;;;;;;5094608;28;20024;-74
2021/08/02 00:44:05;;;;;;;2.95;2.58;;;;;;;;;;5079443;28;20071;-73
2021/08/02 00:46:34;;;;;;;3.17;2.60;;;;;;;;;;5094378;28;20020;-74
2021/08/02 00:49:03;;;;;;;2.70;2.50;;;;;;;;;;5095020;28;20107;-74
2021/08/02 00:51:29;;;;;;;3.65;3.03;;;;;;;;;;5094643;28;20390;-74
2021/08/02 00:53:57;;;;;;;4.43;3.10;;;;;;;;;;5094944;28;20044;-73
2021/08/02 00:56:23;;;;;;;3.75;3.00;;;;;;;;;;5094503;28;20075;-74
2021/08/02 00:58:50;;;;;;;4.35;3.25;;;;;;;;;;5094216;28;20024;-73
2021/08/02 01:01:17;;;;;;;4.28;3.90;;;;;;;;;;5094253;28;20055;-74
2021/08/02 01:03:43;;;;;;;4.18;3.85;;;;;;;;;;5094235;28;20044;-73
2021/08/02 01:06:10;;;;;;;5.28;4.18;;;;;;;;;;5094151;28;20115;-73
2021/08/02 01:08:36;;;;;;;5.80;4.55;;;;;;;;;;5094788;28;20031;-73
2021/08/02 01:11:03;;;;;;;5.53;3.85;;;;;;;;;;5094526;28;20103;-74
2021/08/02 01:13:30;;;;;;;5.63;4.10;;;;;;;;;;5094176;28;20028;-77
2021/08/02 01:15:57;;;;;;;6.05;4.40;;;;;;;;;;5094151;28;20020;-76
2021/08/02 01:18:23;;;;;;;4.50;4.05;;;;;;;;;;5098425;28;20365;-75
2021/08/02 01:20:50;;;;;;;4.15;3.75;;;;;;;;;;5098746;28;20035;-74
2021/08/02 01:23:16;;;;;;;5.70;4.07;;;;;;;;;;5098321;28;20500;-73
2021/08/02 01:26:02;;;;;;;4.15;3.67;;;;;;;;;;5098579;28;20020;-74
2021/08/02 01:28:48;;;;;;;7.13;3.70;;;;;;;;;;5083434;28;20534;-73
2021/08/02 01:31:14;;;;;;;7.97;4.05;;;;;;;;;;5083804;28;20073;-74
2021/08/02 01:33:41;;;;;;;3.38;3.08;;;;;;;;;;5098133;28;20119;-74
2021/08/02 01:36:07;;;;;;;4.53;3.20;;;;;;;;;;5098037;28;20523;-73
2021/08/02 01:38:33;;;;;;;4.25;3.85;;;;;;;;;;5097961;28;20097;-74
2021/08/02 01:41:01;;;;;;;3.95;3.63;;;;;;;;;;5098025;28;20020;-74
2021/08/02 01:43:27;;;;;;;5.82;3.83;;;;;;;;;;5098034;28;20039;-73
2021/08/02 01:46:00;;;;;;;5.18;3.47;;;;;;;;;;5098001;28;20052;-73
2021/08/02 01:48:30;;;;;;;4.63;4.10;;;;;;;;;;5098101;28;20028;-73
2021/08/02 01:51:16;;;;;;;7.45;4.38;;;;;;;;;;5097820;28;20107;-73
2021/08/02 01:54:02;;;;;;;4.55;3.88;;;;;;;;;;5082510;28;20363;-74
2021/08/02 01:56:31;;;;;;;3.88;3.42;;;;;;;;;;5083311;28;20080;-73
2021/08/02 01:58:58;;;;;;;5.20;3.70;;;;;;;;;;5097837;28;20031;-73
2021/08/02 02:01:25;;;;;;;4.53;4.13;;;;;;;;;;5097792;28;20031;-74
2021/08/02 02:03:51;;;;;;;4.45;3.55;;;;;;;;;;5097549;28;20232;-76
2021/08/02 02:06:17;;;;;;;5.65;3.80;;;;;;;;;;5098284;28;20028;-74
2021/08/02 02:08:45;;;;;;;3.58;3.15;;;;;;;;;;5097541;28;20479;-73
2021/08/02 02:11:11;;;;;;;4.78;4.13;;;;;;;;;;5097432;28;20101;-73
2021/08/02 02:13:39;;;;;;;7.68;3.63;;;;;;;;;;5097652;28;20075;-74
2021/08/02 02:16:05;;;;;;;4.22;3.83;;;;;;;;;;5097624;28;20028;-74
2021/08/02 02:18:32;;;;;;;10.35;3.47;;;;;;;;;;5097340;28;20023;-74
2021/08/02 02:20:59;;;;;;;3.72;3.35;;;;;;;;;;5097461;28;20088;-74
2021/08/02 02:23:25;;;;;;;3.97;3.55;;;;;;;;;;5097108;28;20036;-74
2021/08/02 02:25:52;;;;;;;6.20;3.70;;;;;;;;;;5097112;28;20020;-74
2021/08/02 02:28:18;;;;;;;5.05;3.78;;;;;;;;;;5096437;28;20020;-75
2021/08/02 02:30:45;;;;;;;4.22;3.30;;;;;;;;;;5097140;28;20047;-74
2021/08/02 02:33:13;;;;;;;8.35;3.28;;;;;;;;;;5096944;28;20032;-75
2021/08/02 02:35:40;;;;;;;4.05;3.65;;;;;;;;;;5097525;28;20381;-74
2021/08/02 02:38:07;;;;;;;3.72;3.30;;;;;;;;;;5096797;28;20024;-74
2021/08/02 02:40:33;;;;;;;8.23;4.32;;;;;;;;;;5096781;28;20035;-76
2021/08/02 02:42:59;;;;;;;4.60;4.18;;;;;;;;;;5096761;28;20036;-76
2021/08/02 02:45:25;;;;;;;5.30;3.55;;;;;;;;;;5096876;28;20420;-74
2021/08/02 02:47:51;;;;;;;4.85;3.63;;;;;;;;;;5096686;28;20339;-74
2021/08/02 02:50:17;;;;;;;4.13;3.72;;;;;;;;;;5096707;28;20059;-74
2021/08/02 02:52:43;;;;;;;4.50;3.88;;;;;;;;;;5096248;28;20121;-74
2021/08/02 02:55:10;;;;;;;9.50;3.63;;;;;;;;;;5096795;28;20035;-74
2021/08/02 02:57:38;;;;;;;5.18;3.33;;;;;;;;;;5096814;28;20052;-73
2021/08/02 03:00:05;;;;;;;7.03;3.30;;;;;;;;;;5096669;28;20024;-74
2021/08/02 03:02:31;;;;;;;4.10;3.70;;;;;;;;;;5095872;28;20038;-74
2021/08/02 03:04:57;;;;;;;4.80;3.75;;;;;;;;;;5096622;28;20020;-74
2021/08/02 03:07:23;;;;;;;3.97;3.58;;;;;;;;;;5096642;28;20078;-74
2021/08/02 03:09:49;;;;;;;3.67;3.38;;;;;;;;;;5096291;28;20492;-73
2021/08/02 03:12:15;;;;;;;47.25;17.08;;;;;;;;;;5096275;28;20367;-74
2021/08/02 03:14:41;;;;;;;62.33;23.60;;;;;;;;;;5096453;28;20114;-74
2021/08/02 03:17:08;;;;;;;56.05;18.08;;;;;;;;;;5096150;28;20027;-74
2021/08/02 03:19:34;;;;;;;59.67;21.25;;;;;;;;;;5096209;28;20020;-74
2021/08/02 03:22:01;;;;;;;45.22;13.63;;;;;;;;;;5096025;28;20027;-76
2021/08/02 03:24:28;;;;;;;30.77;14.02;;;;;;;;;;5096182;28;20020;-73
2021/08/02 03:26:56;;;;;;;34.97;13.10;;;;;;;;;;5094748;28;20105;-74
2021/08/02 03:29:23;;;;;;;29.83;11.90;;;;;;;;;;5095989;28;20077;-74
2021/08/02 03:31:50;;;;;;;35.03;12.10;;;;;;;;;;5095754;28;20470;-74
2021/08/02 03:34:18;;;;;;;28.58;11.85;;;;;;;;;;5095945;28;20032;-74
2021/08/02 03:36:44;;;;;;;18.42;9.35;;;;;;;;;;5095781;28;20477;-73
2021/08/02 03:39:10;;;;;;;22.58;11.23;;;;;;;;;;5094692;28;20462;-74
2021/08/02 03:41:41;;;;;;;17.38;10.25;;;;;;;;;;5095521;28;20487;-74
2021/08/02 03:44:07;;;;;;;18.27;9.60;;;;;;;;;;5095637;28;20097;-74
2021/08/02 03:46:33;;;;;;;23.30;8.98;;;;;;;;;;5095796;28;20103;-74
2021/08/02 03:48:59;;;;;;;18.08;8.23;;;;;;;;;;5095819;28;20081;-74
2021/08/02 03:51:25;;;;;;;18.83;7.32;;;;;;;;;;5096060;28;20075;-74
2021/08/02 03:53:51;;;;;;;17.17;6.95;;;;;;;;;;5095259;28;20048;-74
2021/08/02 03:56:18;;;;;;;20.58;7.97;;;;;;;;;;5095152;28;20107;-74
2021/08/02 03:58:44;;;;;;;13.68;7.32;;;;;;;;;;5095038;28;20103;-75
2021/08/02 04:01:11;;;;;;;21.55;8.07;;;;;;;;;;5095533;28;20028;-74
2021/08/02 04:03:37;;;;;;;11.07;6.88;;;;;;;;;;5095368;28;20477;-73
2021/08/02 04:06:04;;;;;;;11.95;7.15;;;;;;;;;;5095307;28;20484;-72
2021/08/02 04:08:30;;;;;;;16.10;7.47;;;;;;;;;;5095376;28;20050;-72
2021/08/02 04:10:56;;;;;;;14.50;7.53;;;;;;;;;;5095416;28;20032;-72
2021/08/02 04:13:23;;;;;;;12.10;6.93;;;;;;;;;;5094786;28;20491;-74
2021/08/02 04:15:49;;;;;;;10.75;6.35;;;;;;;;;;5095127;28;20024;-75
2021/08/02 04:18:15;;;;;;;12.05;6.57;;;;;;;;;;5095171;28;20035;-75
2021/08/02 04:20:42;;;;;;;11.30;6.28;;;;;;;;;;5095460;28;20123;-75
2021/08/02 04:23:08;;;;;;;10.38;5.95;;;;;;;;;;5094898;28;20477;-75
2021/08/02 04:25:34;;;;;;;14.73;5.68;;;;;;;;;;5094918;28;20405;-74
2021/08/02 04:28:00;;;;;;;7.07;5.43;;;;;;;;;;5094948;28;20020;-75
2021/08/02 04:30:26;;;;;;;7.97;4.88;;;;;;;;;;5094859;28;20031;-74
2021/08/02 04:32:52;;;;;;;12.02;6.13;;;;;;;;;;5094762;28;20024;-74
2021/08/02 04:35:18;;;;;;;11.00;4.97;;;;;;;;;;5095284;28;20027;-74
2021/08/02 04:37:44;;;;;;;11.63;5.53;;;;;;;;;;5095055;28;20110;-74
2021/08/02 04:40:11;;;;;;;7.63;4.55;;;;;;;;;;5094705;28;20027;-74
2021/08/02 04:42:37;;;;;;;11.00;5.50;;;;;;;;;;5094676;28;20028;-74
2021/08/02 04:45:04;;;;;;;8.50;5.65;;;;;;;;;;5094770;28;20074;-74
2021/08/02 04:47:30;;;;;;;10.02;4.70;;;;;;;;;;5094677;28;20020;-74
2021/08/02 04:49:56;;;;;;;4.75;4.25;;;;;;;;;;5094961;28;20060;-74
2021/08/02 04:52:22;;;;;;;12.13;5.07;;;;;;;;;;5094393;28;20082;-74
2021/08/02 04:54:48;;;;;;;7.40;4.40;;;;;;;;;;5094235;28;20367;-75
2021/08/02 04:57:14;;;;;;;10.98;4.72;;;;;;;;;;5094359;28;20032;-75
2021/08/02 04:59:41;;;;;;;6.45;4.15;;;;;;;;;;5094540;28;20097;-74
2021/08/02 05:02:07;;;;;;;8.05;5.78;;;;;;;;;;5094877;28;20024;-74
2021/08/02 05:04:34;;;;;;;5.43;4.40;;;;;;;;;;5094748;28;20028;-74
2021/08/02 05:07:00;;;;;;;10.02;4.47;;;;;;;;;;5094766;28;20481;-74
2021/08/02 05:09:26;;;;;;;7.35;5.38;;;;;;;;;;5094408;28;20476;-74
2021/08/02 05:11:52;;;;;;;7.47;4.60;;;;;;;;;;5094171;28;20378;-74
2021/08/02 05:14:18;;;;;;;5.82;4.40;;;;;;;;;;5094725;28;20034;-74
2021/08/02 05:16:44;;;;;;;5.93;4.13;;;;;;;;;;5094372;28;20024;-74
2021/08/02 05:19:11;;;;;;;6.05;4.20;;;;;;;;;;5094356;28;20030;-73
2021/08/02 05:21:37;;;;;;;5.43;4.35;;;;;;;;;;5094429;28;20099;-74
2021/08/02 05:24:03;;;;;;;4.57;4.18;;;;;;;;;;5094443;28;20157;-75
2021/08/02 05:26:29;;;;;;;7.07;4.25;;;;;;;;;;5094328;28;20127;-76
2021/08/02 05:28:55;;;;;;;5.70;4.20;;;;;;;;;;5094752;28;20036;-73
2021/08/02 05:31:21;;;;;;;7.47;4.15;;;;;;;;;;5094295;28;20028;-74
2021/08/02 05:33:47;;;;;;;7.20;4.18;;;;;;;;;;5094866;28;20089;-75
2021/08/02 05:36:13;;;;;;;6.15;4.72;;;;;;;;;;5094526;28;20024;-75
2021/08/02 05:38:40;;;;;;;4.55;3.92;;;;;;;;;;5093854;28;20069;-77
2021/08/02 05:41:06;;;;;;;6.00;4.43;;;;;;;;;;5084503;28;20031;-76
2021/08/02 05:43:32;;;;;;;6.72;4.70;;;;;;;;;;5086393;28;20044;-79
2021/08/02 05:45:58;;;;;;;5.88;4.95;;;;;;;;;;5083909;28;20419;-76
2021/08/02 05:48:24;;;;;;;5.90;4.65;;;;;;;;;;5089440;28;20021;-74
2021/08/02 05:50:50;;;;;;;5.43;4.43;;;;;;;;;;5086261;28;20020;-75
2021/08/02 05:53:16;;;;;;;12.43;4.78;;;;;;;;;;5092041;28;20048;-76
2021/08/02 05:55:42;;;;;;;6.57;4.80;;;;;;;;;;5073560;28;20047;-77
2021/08/02 05:58:10;;;;;;;6.72;5.50;;;;;;;;;;5072715;28;20084;-76
2021/08/02 06:00:36;;;;;;;5.43;3.88;;;;;;;;;;5074047;28;20020;-76
2021/08/02 06:03:03;;;;;;;10.60;4.55;;;;;;;;;;5073670;28;20068;-73
2021/08/02 06:05:29;;;;;;;9.10;4.53;;;;;;;;;;5091905;28;20028;-75
2021/08/02 06:07:55;;;;;;;6.78;3.92;;;;;;;;;;5097102;28;20484;-74
2021/08/02 06:10:21;;;;;;;5.63;4.75;;;;;;;;;;5096776;28;20051;-73
2021/08/02 06:12:47;;;;;;;8.45;4.32;;;;;;;;;;5096097;28;20031;-73
2021/08/02 06:15:15;;;;;;;4.43;3.90;;;;;;;;;;5092711;28;20128;-74
2021/08/02 06:17:41;;;;;;;4.40;3.55;;;;;;;;;;5097185;28;20028;-74
2021/08/02 06:20:08;;;;;;;15.60;4.30;;;;;;;;;;5096528;28;20024;-74
2021/08/02 06:22:34;;;;;;;6.88;3.88;;;;;;;;;;5095897;28;20036;-74
2021/08/02 06:25:00;;;;;;;4.45;3.78;;;;;;;;;;5078796;28;20048;-76
2021/08/02 06:27:30;;;;;;;3.72;3.15;;;;;;;;;;5076400;28;20024;-74
2021/08/02 06:29:57;;;;;;;9.48;3.92;;;;;;;;;;5076327;28;20377;-77
2021/08/02 06:32:24;;;;;;;7.68;3.60;;;;;;;;;;5075904;28;20028;-74
2021/08/02 06:34:50;;;;;;;14.48;5.68;;;;;;;;;;5085251;28;20024;-74
2021/08/02 06:37:16;;;;;;;4.18;3.40;;;;;;;;;;5096125;28;20020;-74
2021/08/02 06:39:42;;;;;;;6.70;3.65;;;;;;;;;;5095597;28;20057;-75
2021/08/02 06:42:10;;;;;;;5.57;3.92;;;;;;;;;;5094361;28;20116;-75
2021/08/02 06:44:36;;;;;;;5.85;4.10;;;;;;;;;;5077325;28;20032;-75
2021/08/02 06:47:02;;;;;;;8.88;3.75;;;;;;;;;;5076304;28;20389;-73
2021/08/02 06:49:29;;;;;;;12.55;4.43;;;;;;;;;;5096958;28;20024;-73
2021/08/02 06:51:55;;;;;;;7.97;3.92;;;;;;;;;;5097341;28;20107;-78
2021/08/02 06:54:21;;;;;;;9.70;3.80;;;;;;;;;;5083563;28;20028;-75
2021/08/02 06:56:47;;;;;;;4.32;3.42;;;;;;;;;;5077025;28;20017;-77
2021/08/02 06:59:13;;;;;;;6.70;4.03;;;;;;;;;;5076884;28;20115;-74
2021/08/02 07:01:39;;;;;;;11.38;3.92;;;;;;;;;;5076592;28;20028;-76
2021/08/02 07:04:06;;;;;;;7.80;3.15;;;;;;;;;;5075910;28;20041;-73
2021/08/02 07:06:32;;;;;;;4.38;3.58;;;;;;;;;;5077294;28;20366;-74
2021/08/02 07:08:58;;;;;;;8.40;4.63;;;;;;;;;;5077669;28;20024;-77
2021/08/02 07:11:25;;;;;;;4.60;4.15;;;;;;;;;;5077661;28;20363;-76
2021/08/02 07:13:51;;;;;;;8.10;4.20;;;;;;;;;;5077663;28;20028;-76
2021/08/02 07:16:17;;;;;;;11.38;4.38;;;;;;;;;;5076944;28;20390;-76
2021/08/02 07:18:43;;;;;;;8.57;3.95;;;;;;;;;;5077405;28;20052;-74
2021/08/02 07:21:09;;;;;;;12.50;4.13;;;;;;;;;;5077007;28;20029;-73
2021/08/02 07:23:35;;;;;;;13.77;4.00;;;;;;;;;;5076882;28;20136;-72
2021/08/02 07:26:01;;;;;;;4.03;2.72;;;;;;;;;;5076550;28;20104;-73
2021/08/02 07:28:27;;;;;;;10.50;3.40;;;;;;;;;;5076423;28;20025;-73
2021/08/02 07:30:53;;;;;;;4.53;3.63;;;;;;;;;;5076146;28;20036;-74
2021/08/02 07:33:19;;;;;;;8.70;3.40;;;;;;;;;;5075897;28;20039;-75
2021/08/02 07:35:46;;;;;;;16.63;5.03;;;;;;;;;;5075883;28;20025;-75
2021/08/02 07:38:12;;;;;;;10.93;4.72;;;;;;;;;;5075381;28;20474;-76
2021/08/02 07:40:38;;;;;;;7.28;4.18;;;;;;;;;;5075963;28;20052;-75
2021/08/02 07:43:04;;;;;;;8.65;4.03;;;;;;;;;;5076014;28;20035;-75
2021/08/02 07:45:30;;;;;;;18.20;4.53;;;;;;;;;;5076356;28;20070;-75
2021/08/02 07:47:56;;;;;;;16.00;3.30;;;;;;;;;;5075777;28;20108;-79
2021/08/02 07:50:22;;;;;;;5.68;3.63;;;;;;;;;;5075896;28;20134;-74
2021/08/02 07:52:48;;;;;;;3.65;3.35;;;;;;;;;;5075540;28;20420;-75
2021/08/02 07:55:14;;;;;;;4.10;2.90;;;;;;;;;;5076106;28;20025;-77
2021/08/02 07:57:40;;;;;;;6.72;3.05;;;;;;;;;;5076549;28;20021;-75
2021/08/02 08:00:07;;;;;;;6.38;3.65;;;;;;;;;;5076324;28;20029;-77
2021/08/02 08:02:33;;;;;;;6.55;3.03;;;;;;;;;;5076044;28;20036;-79
2021/08/02 08:04:59;;;;;;;4.35;2.88;;;;;;;;;;5076525;28;20028;-77
2021/08/02 08:07:25;;;;;;;7.97;3.13;;;;;;;;;;5077019;28;20025;-77
2021/08/02 08:09:51;;;;;;;8.68;3.00;;;;;;;;;;5077444;28;20066;-77
2021/08/02 08:12:18;;;;;;;5.50;2.63;;;;;;;;;;5076825;28;20021;-75
2021/08/02 08:14:44;;;;;;;7.05;3.22;;;;;;;;;;5077285;28;20458;-76
2021/08/02 08:17:11;;;;;;;6.82;3.67;;;;;;;;;;5076512;28;20485;-73
2021/08/02 08:19:37;;;;;;;14.13;4.15;;;;;;;;;;5074457;28;20041;-72
2021/08/02 08:22:03;;;;;;;11.05;3.72;;;;;;;;;;5074746;28;20025;-73
2021/08/02 08:24:29;;;;;;;6.43;4.00;;;;;;;;;;5091673;28;20051;-72
2021/08/02 08:26:55;;;;;;;4.60;4.20;;;;;;;;;;5093523;28;20369;-73
2021/08/02 08:29:21;;;;;;;3.60;3.28;;;;;;;;;;5093285;28;20389;-75
2021/08/02 08:31:47;;;;;;;7.38;3.60;;;;;;;;;;5074181;28;20025;-75
2021/08/02 08:34:13;;;;;;;3.78;3.45;;;;;;;;;;5088439;28;20504;-74
2021/08/02 08:36:39;;;;;;;3.58;3.28;;;;;;;;;;5095104;28;20028;-75
2021/08/02 08:39:05;;;;;;;8.90;3.45;;;;;;;;;;5096340;28;20069;-75
2021/08/02 08:41:31;;;;;;;5.55;4.10;;;;;;;;;;5094988;28;20055;-75
2021/08/02 08:43:58;;;;;;;4.82;3.50;;;;;;;;;;5079457;28;20474;-75
2021/08/02 08:46:24;;;;;;;4.47;4.07;;;;;;;;;;5075755;28;20033;-75
2021/08/02 08:48:50;;;;;;;4.40;4.00;;;;;;;;;;5074878;28;20097;-74
2021/08/02 08:51:16;;;;;;;5.60;5.10;;;;;;;;;;5074642;28;20052;-73
2021/08/02 08:53:43;;;;;;;4.85;3.90;;;;;;;;;;5083695;28;20052;-76
2021/08/02 08:56:09;;;;;;;4.72;4.32;;;;;;;;;;5094742;28;20251;-75
2021/08/02 08:58:35;;;;;;;5.18;4.18;;;;;;;;;;5096268;28;20028;-75
2021/08/02 09:01:02;;;;;;;14.75;3.50;;;;;;;;;;5082183;28;20028;-75
2021/08/02 09:03:29;;;;;;;4.32;3.92;;;;;;;;;;5074924;28;20047;-73
2021/08/02 09:06:10;;;;;;;4.18;3.78;;;;;;;;;;5075956;28;20421;-76
2021/08/02 09:08:43;;;;;;;3.75;3.45;;;;;;;;;;5075327;28;20082;-75
2021/08/02 09:11:18;;;;;;;5.78;4.78;;;;;;;;;;5076148;28;20032;-76
2021/08/02 09:13:44;;;;;;;3.97;3.67;;;;;;;;;;5075840;28;20111;-76
2021/08/02 09:16:11;;;;;;;4.68;4.28;;;;;;;;;;5075532;28;20115;-75
2021/08/02 09:18:37;;;;;;;3.90;3.60;;;;;;;;;;5075423;28;20470;-75
2021/08/02 09:21:06;;;;;;;3.85;3.55;;;;;;;;;;5075281;28;20440;-75
2021/08/02 09:23:32;;;;;;;6.22;5.65;;;;;;;;;;5076200;28;20029;-75
2021/08/02 09:26:00;;;;;;;4.35;3.95;;;;;;;;;;5076227;28;20032;-76
2021/08/02 09:28:26;;;;;;;4.55;4.25;;;;;;;;;;5072982;28;20062;-75
2021/08/02 09:30:56;;;;;;;4.78;4.38;;;;;;;;;;5073404;28;20020;-74
2021/08/02 09:33:22;;;;;;;4.50;4.10;;;;;;;;;;5073417;28;20077;-74
2021/08/02 09:35:51;;;;;;;6.20;4.50;;;;;;;;;;5074039;28;20467;-75
2021/08/02 09:38:17;;;;;;;4.53;4.13;;;;;;;;;;5075370;28;20025;-75
2021/08/02 09:40:47;;;;;;;10.23;4.68;;;;;;;;;;5076231;28;20082;-75
2021/08/02 09:43:17;;;;;;;8.85;3.50;;;;;;;;;;5077098;28;20102;-73
2021/08/02 09:45:52;;;;;;;4.05;3.70;;;;;;;;;;5077669;28;20021;-75
2021/08/02 09:48:19;;;;;;;5.47;4.50;;;;;;;;;;5095472;28;20023;-74
2021/08/02 09:50:46;;;;;;;4.53;4.13;;;;;;;;;;5095953;28;20039;-75
2021/08/02 09:53:13;;;;;;;3.78;3.45;;;;;;;;;;5096496;28;20070;-74
2021/08/02 09:55:40;;;;;;;5.82;4.60;;;;;;;;;;5096832;28;20038;-80
2021/08/02 09:58:06;;;;;;;5.15;4.00;;;;;;;;;;5096419;28;20462;-74
2021/08/02 10:00:33;;;;;;;4.68;3.70;;;;;;;;;;5096637;28;20488;-74
2021/08/02 10:02:59;;;;;;;3.95;3.65;;;;;;;;;;5096985;28;20032;-75
2021/08/02 10:05:25;;;;;;;3.92;3.63;;;;;;;;;;5096706;28;20470;-77
2021/08/02 10:07:51;;;;;;;4.32;4.00;;;;;;;;;;5095982;28;20024;-75
2021/08/02 10:10:17;;;;;;;4.55;4.18;;;;;;;;;;5095528;28;20371;-80
2021/08/02 10:12:44;;;;;;;6.97;3.85;;;;;;;;;;5095595;28;20020;-78
2021/08/02 10:15:12;;;;;;;9.07;4.70;;;;;;;;;;5095205;28;20520;-78
2021/08/02 10:17:38;;;;;;;12.23;4.78;;;;;;;;;;5095888;28;20024;-74
2021/08/02 10:20:05;;;;;;;5.47;4.43;;;;;;;;;;5094762;28;20771;-76
2021/08/02 10:22:42;;;;;;;3.90;3.60;;;;;;;;;;5095935;28;20079;-75
2021/08/02 10:25:08;;;;;;;3.53;3.22;;;;;;;;;;5096592;28;20389;-76
2021/08/02 10:27:34;;;;;;;4.13;3.83;;;;;;;;;;5095854;28;20031;-74
2021/08/02 10:30:00;;;;;;;6.68;3.50;;;;;;;;;;5095969;28;20081;-71
2021/08/02 10:32:27;;;;;;;3.72;3.42;;;;;;;;;;5097133;28;20024;-69
2021/08/02 10:34:54;;;;;;;4.28;3.85;;;;;;;;;;5095974;28;20037;-69
2021/08/02 10:37:36;;;;;;;5.95;4.07;;;;;;;;;;5095908;28;20172;-71
2021/08/02 10:40:04;;;;;;;4.25;3.85;;;;;;;;;;5095947;28;20020;-72
2021/08/02 10:42:30;;;;;;;5.32;3.55;;;;;;;;;;5095631;28;20028;-72
2021/08/02 10:44:56;;;;;;;5.18;4.47;;;;;;;;;;5095088;28;20082;-71
2021/08/02 10:47:22;;;;;;;4.63;4.22;;;;;;;;;;5096385;28;20046;-71
2021/08/02 10:49:50;;;;;;;4.35;3.95;;;;;;;;;;5095918;28;20032;-70
2021/08/02 10:52:31;;;;;;;5.53;4.60;;;;;;;;;;5095428;28;20094;-72
2021/08/02 10:54:58;;;;;;;5.70;4.88;;;;;;;;;;5094191;28;20466;-72
2021/08/02 10:57:24;;;;;;;4.75;4.30;;;;;;;;;;5094531;28;20081;-74
2021/08/02 10:59:50;;;;;;;5.70;5.10;;;;;;;;;;5095910;28;20032;-72
2021/08/02 11:02:16;;;;;;;7.78;4.68;;;;;;;;;;5084245;28;20025;-72
2021/08/02 11:04:42;;;;;;;8.07;4.47;;;;;;;;;;5075850;28;20449;-72
2021/08/02 11:07:08;;;;;;;5.57;4.40;;;;;;;;;;5074702;28;20024;-73
2021/08/02 11:09:36;;;;;;;5.22;4.82;;;;;;;;;;5074051;28;20021;-72
2021/08/02 11:12:04;;;;;;;7.53;4.85;;;;;;;;;;5074533;28;20025;-72
2021/08/02 11:14:30;;;;;;;7.22;4.03;;;;;;;;;;5074741;28;20032;-71
2021/08/02 11:16:56;;;;;;;4.70;4.30;;;;;;;;;;5082310;28;20031;-73
2021/08/02 11:19:24;;;;;;;7.80;4.47;;;;;;;;;;5094642;28;20488;-72
2021/08/02 11:22:02;;;;;;;4.65;3.90;;;;;;;;;;5093154;28;20504;-72
2021/08/02 11:24:29;;;;;;;4.55;4.25;;;;;;;;;;5095297;28;20144;-73
2021/08/02 11:26:55;;;;;;;4.30;3.95;;;;;;;;;;5095088;28;20473;-73
2021/08/02 11:29:22;;;;;;;4.50;3.85;;;;;;;;;;5094952;28;20029;-72
2021/08/02 11:32:09;;;;;;;4.95;4.55;;;;;;;;;;5090890;28;20488;-72
2021/08/02 11:34:35;;;;;;;8.93;4.18;;;;;;;;;;5079395;28;20529;-72
2021/08/02 11:37:03;;;;;;;4.75;4.38;;;;;;;;;;5094968;28;20035;-72
2021/08/02 11:39:29;;;;;;;5.47;4.22;;;;;;;;;;5094491;28;20057;-72
2021/08/02 11:42:00;;;;;;;4.20;3.80;;;;;;;;;;5091561;28;20028;-71
2021/08/02 11:44:26;;;;;;;4.18;3.88;;;;;;;;;;5094129;28;20044;-72
2021/08/02 11:46:52;;;;;;;4.50;4.10;;;;;;;;;;5094986;28;20076;-72
2021/08/02 11:49:18;;;;;;;4.03;3.63;;;;;;;;;;5093796;28;20381;-72
2021/08/02 11:51:44;;;;;;;7.22;4.60;;;;;;;;;;5089635;28;20031;-72
2021/08/02 11:54:26;;;;;;;4.50;4.10;;;;;;;;;;5094218;28;20165;-72
2021/08/02 11:56:52;;;;;;;;;;;;;;;;;;5094855;28;20939;-72
2021/08/02 11:59:22;;;;;;;4.88;4.47;;;;;;;;;;5093798;28;19910;-71
2021/08/02 12:01:48;;;;;;;4.15;3.85;;;;;;;;;;5076029;28;20030;-72
2021/08/02 12:04:14;;;;;;;4.28;3.97;;;;;;;;;;5074510;28;20106;-72
2021/08/02 12:06:49;;;;;;;4.50;4.20;;;;;;;;;;5074120;28;20025;-72
2021/08/02 12:09:15;;;;;;;4.78;4.38;;;;;;;;;;5074168;28;20028;-73
2021/08/02 12:11:42;;;;;;;5.00;4.53;;;;;;;;;;5074116;28;20138;-76
2021/08/02 12:14:08;;;;;;;7.10;4.70;;;;;;;;;;5074067;28;20128;-73
2021/08/02 12:16:34;;;;;;;5.10;4.22;;;;;;;;;;5074328;28;20028;-71
2021/08/02 12:19:04;;;;;;;7.00;4.30;;;;;;;;;;5073901;28;20068;-69
2021/08/02 12:21:32;;;;;;;10.48;3.83;;;;;;;;;;5073911;28;20039;-70
2021/08/02 12:24:02;;;;;;;4.35;4.05;;;;;;;;;;5068398;28;20043;-70
2021/08/02 12:26:28;;;;;;;4.35;3.90;;;;;;;;;;5073436;28;20390;-70
2021/08/02 12:28:55;;;;;;;5.88;3.75;;;;;;;;;;5073291;28;20021;-72
2021/08/02 12:31:21;;;;;;;4.20;3.80;;;;;;;;;;5073169;28;20032;-72
2021/08/02 12:33:49;;;;;;;4.03;3.72;;;;;;;;;;5073748;28;20046;-71
2021/08/02 12:36:15;;;;;;;5.75;3.70;;;;;;;;;;5086724;28;20027;-70
2021/08/02 12:38:42;;;;;;;5.50;3.92;;;;;;;;;;5093087;28;20031;-71
2021/08/02 12:41:08;;;;;;;4.05;3.75;;;;;;;;;;5091271;28;20028;-71
2021/08/02 12:43:34;;;;;;;11.60;3.80;;;;;;;;;;5092222;28;20111;-71
2021/08/02 12:46:00;;;;;;;14.27;4.20;;;;;;;;;;5092332;28;20027;-71
2021/08/02 12:48:26;;;;;;;6.28;3.92;;;;;;;;;;5093271;28;20024;-74
2021/08/02 12:50:52;;;;;;;10.50;4.22;;;;;;;;;;5078755;28;20558;-75
2021/08/02 12:53:18;;;;;;;4.72;4.30;;;;;;;;;;5072620;28;20494;-72
2021/08/02 12:55:44;;;;;;;5.97;3.92;;;;;;;;;;5082273;28;20370;-72
2021/08/02 12:58:12;;;;;;;6.38;3.58;;;;;;;;;;5092630;28;20074;-72
2021/08/02 13:00:38;;;;;;;13.32;3.95;;;;;;;;;;5080170;28;20063;-72
2021/08/02 13:03:05;;;;;;;16.42;5.18;;;;;;;;;;5073578;28;20029;-72
2021/08/02 13:05:31;;;;;;;5.22;3.58;;;;;;;;;;5081509;28;20024;-73
2021/08/02 13:07:57;;;;;;;4.50;3.85;;;;;;;;;;5094603;28;20020;-74
2021/08/02 13:10:23;;;;;;;4.32;3.53;;;;;;;;;;5091515;28;20429;-72
2021/08/02 13:12:49;;;;;;;4.82;4.43;;;;;;;;;;5097329;28;20032;-73
2021/08/02 13:15:15;;;;;;;10.45;3.50;;;;;;;;;;5097539;28;20052;-73
2021/08/02 13:17:41;;;;;;;3.58;3.28;;;;;;;;;;5097840;28;20020;-73
2021/08/02 13:20:07;;;;;;;6.63;3.33;;;;;;;;;;5088214;28;20036;-73
2021/08/02 13:22:45;;;;;;;3.90;3.17;;;;;;;;;;5076977;28;20040;-73
2021/08/02 13:27:58;;;;;;;4.15;3.20;;;;;;;;;;5075441;28;20485;-72
2021/08/02 13:30:24;;;;;;;9.27;2.95;;;;;;;;;;5074511;28;20028;-73
2021/08/02 13:32:50;;;;;;;3.22;2.88;;;;;;;;;;5077115;28;20508;-72
2021/08/02 13:35:16;;;;;;;5.93;3.95;;;;;;;;;;5081304;28;20055;-71
2021/08/02 13:37:42;;;;;;;5.95;3.30;;;;;;;;;;5097421;28;20031;-72
2021/08/02 13:40:09;;;;;;;5.90;3.00;;;;;;;;;;5093716;28;20056;-72
2021/08/02 13:42:35;;;;;;;2.92;2.72;;;;;;;;;;5097068;28;20028;-73
2021/08/02 13:45:04;;;;;;;5.90;4.28;;;;;;;;;;5096084;28;20032;-72
2021/08/02 13:47:31;;;;;;;9.27;5.00;;;;;;;;;;5096642;28;20028;-71
2021/08/02 13:49:57;;;;;;;6.95;5.32;;;;;;;;;;5092957;28;20085;-72
2021/08/02 13:52:23;;;;;;;15.45;5.30;;;;;;;;;;5096236;28;20048;-71
2021/08/02 13:54:49;;;;;;;9.25;4.82;;;;;;;;;;5095403;28;20111;-73
2021/08/02 13:57:15;;;;;;;10.18;5.10;;;;;;;;;;5096702;28;20024;-72
2021/08/02 13:59:43;;;;;;;11.95;5.90;;;;;;;;;;5076359;28;20032;-72
2021/08/02 14:02:10;;;;;;;16.05;6.28;;;;;;;;;;5095472;28;20036;-70
2021/08/02 14:04:36;;;;;;;11.13;5.55;;;;;;;;;;5095554;28;20059;-71
2021/08/02 14:07:03;;;;;;;11.48;5.72;;;;;;;;;;5096346;28;20024;-71
2021/08/02 14:09:34;;;;;;;9.32;5.45;;;;;;;;;;5092840;28;20503;-73
2021/08/02 14:12:00;;;;;;;9.63;4.35;;;;;;;;;;5095267;28;20389;-72
2021/08/02 14:14:29;;;;;;;10.55;5.13;;;;;;;;;;5095814;28;20362;-72
2021/08/02 14:16:56;;;;;;;9.32;4.55;;;;;;;;;;5095688;28;20024;-72
2021/08/02 14:19:25;;;;;;;6.70;4.70;;;;;;;;;;5094730;28;20106;-76
2021/08/02 14:21:51;;;;;;;7.05;4.68;;;;;;;;;;5075085;28;20027;-74
2021/08/02 14:24:17;;;;;;;6.65;3.63;;;;;;;;;;5074490;28;20106;-73
2021/08/02 14:26:43;;;;;;;5.75;3.85;;;;;;;;;;5091005;28;20024;-74
2021/08/02 14:29:10;;;;;;;9.95;4.18;;;;;;;;;;5096448;28;20055;-72
2021/08/02 14:31:37;;;;;;;3.78;3.40;;;;;;;;;;5075265;28;20032;-70
2021/08/02 14:34:03;;;;;;;8.40;5.13;;;;;;;;;;5075464;28;20078;-72
2021/08/02 14:36:29;;;;;;;6.57;3.90;;;;;;;;;;5074315;28;20032;-73
2021/08/02 14:38:58;;;;;;;6.22;4.40;;;;;;;;;;5074832;28;20032;-73
2021/08/02 14:41:32;;;;;;;14.57;4.22;;;;;;;;;;5090132;28;20465;-72
2021/08/02 14:43:58;;;;;;;4.00;3.40;;;;;;;;;;5094914;28;20044;-71